sensor_id;sensor_type;location;lat;lon;timestamp;pressure;altitude;pressure_sealevel;temperature;humidity
11440;BME280;5776;51.814;4.510;2022-08-21T00:01:50;101750.25;;;19.61;78.39
11440;BME280;5776;51.814;4.510;2022-08-21T00:04:16;101750.59;;;19.59;78.25
11440;BME280;5776;51.814;4.510;2022-08-21T00:06:42;101748.94;;;19.58;78.34
11440;BME280;5776;51.814;4.510;2022-08-21T00:09:09;101755.28;;;19.59;78.22
11440;BME280;5776;51.814;4.510;2022-08-21T00:11:36;101762.28;;;19.56;78.01
11440;BME280;5776;51.814;4.510;2022-08-21T00:14:04;101754.00;;;19.56;78.35
11440;BME280;5776;51.814;4.510;2022-08-21T00:16:31;101748.00;;;19.54;77.87
11440;BME280;5776;51.814;4.510;2022-08-21T00:18:57;101742.00;;;19.52;78.15
11440;BME280;5776;51.814;4.510;2022-08-21T00:21:23;101737.31;;;19.53;78.25
11440;BME280;5776;51.814;4.510;2022-08-21T00:23:51;101742.31;;;19.51;78.80
11440;BME280;5776;51.814;4.510;2022-08-21T00:26:17;101745.09;;;19.51;78.50
11440;BME280;5776;51.814;4.510;2022-08-21T00:28:43;101750.13;;;19.49;78.27
11440;BME280;5776;51.814;4.510;2022-08-21T00:31:11;101754.00;;;19.48;78.13
11440;BME280;5776;51.814;4.510;2022-08-21T00:33:37;101747.69;;;19.47;78.08
11440;BME280;5776;51.814;4.510;2022-08-21T00:36:04;101748.81;;;19.46;78.48
11440;BME280;5776;51.814;4.510;2022-08-21T00:38:30;101741.69;;;19.45;78.28
11440;BME280;5776;51.814;4.510;2022-08-21T00:40:59;101743.97;;;19.43;78.26
11440;BME280;5776;51.814;4.510;2022-08-21T00:43:28;101742.34;;;19.42;78.37
11440;BME280;5776;51.814;4.510;2022-08-21T00:45:55;101735.22;;;19.41;78.00
11440;BME280;5776;51.814;4.510;2022-08-21T00:48:22;101736.84;;;19.42;78.32
11440;BME280;5776;51.814;4.510;2022-08-21T00:50:55;101734.41;;;19.40;78.58
11440;BME280;5776;51.814;4.510;2022-08-21T00:53:23;101732.44;;;19.41;78.59
11440;BME280;5776;51.814;4.510;2022-08-21T00:55:51;101730.03;;;19.39;78.27
11440;BME280;5776;51.814;4.510;2022-08-21T00:58:18;101735.56;;;19.39;78.47
11440;BME280;5776;51.814;4.510;2022-08-21T01:00:46;101735.88;;;19.38;78.55
11440;BME280;5776;51.814;4.510;2022-08-21T01:03:18;101735.38;;;19.36;78.26
11440;BME280;5776;51.814;4.510;2022-08-21T01:05:45;101738.13;;;19.36;78.53
11440;BME280;5776;51.814;4.510;2022-08-21T01:08:13;101744.28;;;19.33;77.84
11440;BME280;5776;51.814;4.510;2022-08-21T01:10:41;101737.97;;;19.32;78.05
11440;BME280;5776;51.814;4.510;2022-08-21T01:13:09;101740.25;;;19.30;78.74
11440;BME280;5776;51.814;4.510;2022-08-21T01:15:40;101735.09;;;19.29;78.00
11440;BME280;5776;51.814;4.510;2022-08-21T01:18:10;101734.25;;;19.28;78.58
11440;BME280;5776;51.814;4.510;2022-08-21T01:20:38;101730.69;;;19.28;78.03
11440;BME280;5776;51.814;4.510;2022-08-21T01:23:05;101729.09;;;19.27;77.98
11440;BME280;5776;51.814;4.510;2022-08-21T01:25:32;101732.97;;;19.26;78.45
11440;BME280;5776;51.814;4.510;2022-08-21T01:28:02;101730.22;;;19.26;78.45
11440;BME280;5776;51.814;4.510;2022-08-21T01:30:33;101731.34;;;19.25;78.48
11440;BME280;5776;51.814;4.510;2022-08-21T01:33:00;101732.50;;;19.24;78.17
11440;BME280;5776;51.814;4.510;2022-08-21T01:35:26;101733.63;;;19.23;78.21
11440;BME280;5776;51.814;4.510;2022-08-21T01:37:52;101732.00;;;19.21;78.05
11440;BME280;5776;51.814;4.510;2022-08-21T01:40:18;101723.75;;;19.21;78.35
11440;BME280;5776;51.814;4.510;2022-08-21T01:42:45;101725.22;;;19.19;78.14
11440;BME280;5776;51.814;4.510;2022-08-21T01:45:12;101725.53;;;19.17;78.39
11440;BME280;5776;51.814;4.510;2022-08-21T01:47:38;101723.09;;;19.16;77.69
11440;BME280;5776;51.814;4.510;2022-08-21T01:50:09;101727.78;;;19.15;78.21
11440;BME280;5776;51.814;4.510;2022-08-21T01:52:36;101726.19;;;19.14;77.88
11440;BME280;5776;51.814;4.510;2022-08-21T01:55:05;101713.53;;;19.13;77.78
11440;BME280;5776;51.814;4.510;2022-08-21T01:57:31;101717.44;;;19.12;78.02
11440;BME280;5776;51.814;4.510;2022-08-21T01:59:58;101712.22;;;19.11;77.96
11440;BME280;5776;51.814;4.510;2022-08-21T02:02:24;101712.56;;;19.09;78.33
11440;BME280;5776;51.814;4.510;2022-08-21T02:04:50;101710.94;;;19.08;78.46
11440;BME280;5776;51.814;4.510;2022-08-21T02:07:16;101710.13;;;19.08;77.89
11440;BME280;5776;51.814;4.510;2022-08-21T02:09:42;101706.59;;;19.07;78.59
11440;BME280;5776;51.814;4.510;2022-08-21T02:12:10;101701.38;;;19.06;78.21
11440;BME280;5776;51.814;4.510;2022-08-21T02:14:36;101706.91;;;19.06;78.24
11440;BME280;5776;51.814;4.510;2022-08-21T02:17:02;101704.47;;;19.04;78.04
11440;BME280;5776;51.814;4.510;2022-08-21T02:19:29;101706.75;;;19.02;78.21
11440;BME280;5776;51.814;4.510;2022-08-21T02:21:55;101699.63;;;19.01;78.24
11440;BME280;5776;51.814;4.510;2022-08-21T02:24:21;101703.50;;;19.00;77.81
11440;BME280;5776;51.814;4.510;2022-08-21T02:26:46;101698.34;;;18.98;78.13
11440;BME280;5776;51.814;4.510;2022-08-21T02:29:13;101705.75;;;18.98;78.63
11440;BME280;5776;51.814;4.510;2022-08-21T02:31:39;101700.25;;;18.98;77.71
11440;BME280;5776;51.814;4.510;2022-08-21T02:34:05;101710.78;;;18.96;78.21
11440;BME280;5776;51.814;4.510;2022-08-21T02:36:31;101705.28;;;18.96;77.69
11440;BME280;5776;51.814;4.510;2022-08-21T02:38:57;101702.88;;;18.94;78.15
11440;BME280;5776;51.814;4.510;2022-08-21T02:41:23;101709.47;;;18.93;77.89
11440;BME280;5776;51.814;4.510;2022-08-21T02:43:49;101703.50;;;18.91;78.16
11440;BME280;5776;51.814;4.510;2022-08-21T02:46:17;101704.63;;;18.90;78.23
11440;BME280;5776;51.814;4.510;2022-08-21T02:48:44;101695.88;;;18.88;78.21
11440;BME280;5776;51.814;4.510;2022-08-21T02:51:14;101700.28;;;18.89;78.25
11440;BME280;5776;51.814;4.510;2022-08-21T02:53:41;101698.63;;;18.88;78.26
11440;BME280;5776;51.814;4.510;2022-08-21T02:56:09;101694.28;;;18.87;78.27
11440;BME280;5776;51.814;4.510;2022-08-21T02:58:43;101697.34;;;18.86;78.22
11440;BME280;5776;51.814;4.510;2022-08-21T03:01:10;101692.97;;;18.85;77.76
11440;BME280;5776;51.814;4.510;2022-08-21T03:03:38;101700.44;;;18.84;78.09
11440;BME280;5776;51.814;4.510;2022-08-21T03:06:06;101700.75;;;18.83;78.35
11440;BME280;5776;51.814;4.510;2022-08-21T03:08:35;101693.63;;;18.82;77.74
11440;BME280;5776;51.814;4.510;2022-08-21T03:11:01;101697.84;;;18.79;78.29
11440;BME280;5776;51.814;4.510;2022-08-21T03:13:28;101691.53;;;18.78;77.89
11440;BME280;5776;51.814;4.510;2022-08-21T03:15:55;101684.41;;;18.77;78.01
11440;BME280;5776;51.814;4.510;2022-08-21T03:18:22;101685.81;;;18.75;77.87
11440;BME280;5776;51.814;4.510;2022-08-21T03:20:48;101682.00;;;18.76;78.08
11440;BME280;5776;51.814;4.510;2022-08-21T03:23:15;101678.41;;;18.75;78.04
11440;BME280;5776;51.814;4.510;2022-08-21T03:25:42;101682.25;;;18.74;77.71
11440;BME280;5776;51.814;4.510;2022-08-21T03:28:11;101685.03;;;18.74;78.31
11440;BME280;5776;51.814;4.510;2022-08-21T03:30:37;101678.22;;;18.72;78.46
11440;BME280;5776;51.814;4.510;2022-08-21T03:33:03;101674.66;;;18.71;78.08
11440;BME280;5776;51.814;4.510;2022-08-21T03:35:29;101673.03;;;18.70;78.01
11440;BME280;5776;51.814;4.510;2022-08-21T03:37:55;101674.16;;;18.69;77.78
11440;BME280;5776;51.814;4.510;2022-08-21T03:40:22;101676.94;;;18.69;77.79
11440;BME280;5776;51.814;4.510;2022-08-21T03:42:50;101672.06;;;18.66;77.93
11440;BME280;5776;51.814;4.510;2022-08-21T03:45:17;101660.22;;;18.66;78.27
11440;BME280;5776;51.814;4.510;2022-08-21T03:47:55;101664.94;;;18.65;78.04
11440;BME280;5776;51.814;4.510;2022-08-21T03:50:25;101670.44;;;18.65;78.38
11440;BME280;5776;51.814;4.510;2022-08-21T03:52:51;101671.59;;;18.64;78.29
11440;BME280;5776;51.814;4.510;2022-08-21T03:55:17;101667.84;;;18.60;77.97
11440;BME280;5776;51.814;4.510;2022-08-21T03:57:43;101662.84;;;18.62;78.13
11440;BME280;5776;51.814;4.510;2022-08-21T04:00:11;101666.25;;;18.59;78.17
11440;BME280;5776;51.814;4.510;2022-08-21T04:02:38;101662.34;;;18.60;78.38
11440;BME280;5776;51.814;4.510;2022-08-21T04:05:05;101660.75;;;18.59;78.07
11440;BME280;5776;51.814;4.510;2022-08-21T04:07:32;101659.09;;;18.58;77.76
11440;BME280;5776;51.814;4.510;2022-08-21T04:09:58;101668.19;;;18.59;77.63
11440;BME280;5776;51.814;4.510;2022-08-21T04:12:24;101670.09;;;18.58;78.21
11440;BME280;5776;51.814;4.510;2022-08-21T04:14:50;101666.88;;;18.56;77.85
11440;BME280;5776;51.814;4.510;2022-08-21T04:17:18;101664.44;;;18.54;77.54
11440;BME280;5776;51.814;4.510;2022-08-21T04:19:44;101669.94;;;18.54;78.18
11440;BME280;5776;51.814;4.510;2022-08-21T04:22:11;101673.00;;;18.53;78.35
11440;BME280;5776;51.814;4.510;2022-08-21T04:24:37;101678.50;;;18.53;78.17
11440;BME280;5776;51.814;4.510;2022-08-21T04:27:03;101680.81;;;18.51;78.02
11440;BME280;5776;51.814;4.510;2022-08-21T04:29:29;101673.66;;;18.50;78.26
11440;BME280;5776;51.814;4.510;2022-08-21T04:31:55;101668.50;;;18.48;78.05
11440;BME280;5776;51.814;4.510;2022-08-21T04:34:21;101675.13;;;18.47;77.73
11440;BME280;5776;51.814;4.510;2022-08-21T04:36:47;101683.38;;;18.47;78.36
11440;BME280;5776;51.814;4.510;2022-08-21T04:39:13;101682.56;;;18.47;78.34
11440;BME280;5776;51.814;4.510;2022-08-21T04:41:39;101687.56;;;18.45;78.05
11440;BME280;5776;51.814;4.510;2022-08-21T04:44:05;101688.38;;;18.45;78.23
11440;BME280;5776;51.814;4.510;2022-08-21T04:46:32;101693.06;;;18.45;77.90
11440;BME280;5776;51.814;4.510;2022-08-21T04:48:58;101693.06;;;18.45;78.25
11440;BME280;5776;51.814;4.510;2022-08-21T04:51:29;101692.56;;;18.43;78.06
11440;BME280;5776;51.814;4.510;2022-08-21T04:54:06;101698.06;;;18.43;77.87
11440;BME280;5776;51.814;4.510;2022-08-21T04:56:43;101698.72;;;18.40;77.63
11440;BME280;5776;51.814;4.510;2022-08-21T04:59:21;101698.94;;;17.72;79.22
11440;BME280;5776;51.814;4.510;2022-08-21T05:01:48;101709.13;;;16.81;83.63
11440;BME280;5776;51.814;4.510;2022-08-21T05:04:18;101706.03;;;16.33;85.96
11440;BME280;5776;51.814;4.510;2022-08-21T05:06:48;101706.72;;;16.25;86.21
11440;BME280;5776;51.814;4.510;2022-08-21T05:09:16;101698.19;;;16.12;87.65
11440;BME280;5776;51.814;4.510;2022-08-21T05:11:44;101702.69;;;16.08;87.84
11440;BME280;5776;51.814;4.510;2022-08-21T05:14:11;101700.84;;;16.04;88.57
11440;BME280;5776;51.814;4.510;2022-08-21T05:16:37;101705.63;;;15.98;88.14
11440;BME280;5776;51.814;4.510;2022-08-21T05:19:06;101708.38;;;15.98;89.34
11440;BME280;5776;51.814;4.510;2022-08-21T05:21:42;101704.41;;;16.04;89.99
11440;BME280;5776;51.814;4.510;2022-08-21T05:24:09;101705.31;;;16.13;89.81
11440;BME280;5776;51.814;4.510;2022-08-21T05:26:36;101698.59;;;16.19;90.82
11440;BME280;5776;51.814;4.510;2022-08-21T05:29:03;101698.41;;;16.30;91.41
11440;BME280;5776;51.814;4.510;2022-08-21T05:31:29;101705.28;;;16.55;90.16
11440;BME280;5776;51.814;4.510;2022-08-21T05:33:54;101697.66;;;16.66;91.36
11440;BME280;5776;51.814;4.510;2022-08-21T05:36:20;101706.75;;;16.75;91.69
11440;BME280;5776;51.814;4.510;2022-08-21T05:38:46;101706.38;;;16.81;90.66
11440;BME280;5776;51.814;4.510;2022-08-21T05:41:12;101701.78;;;16.77;90.95
11440;BME280;5776;51.814;4.510;2022-08-21T05:43:38;101714.91;;;16.80;91.54
11440;BME280;5776;51.814;4.510;2022-08-21T05:46:05;101705.63;;;16.90;91.23
11440;BME280;5776;51.814;4.510;2022-08-21T05:48:32;101700.94;;;16.90;92.10
11440;BME280;5776;51.814;4.510;2022-08-21T05:51:11;101713.06;;;16.89;92.61
11440;BME280;5776;51.814;4.510;2022-08-21T05:53:38;101707.06;;;16.87;93.41
11440;BME280;5776;51.814;4.510;2022-08-21T05:56:04;101710.50;;;16.93;92.48
11440;BME280;5776;51.814;4.510;2022-08-21T05:58:32;101709.56;;;16.97;92.68
11440;BME280;5776;51.814;4.510;2022-08-21T06:00:59;101711.19;;;16.98;93.04
11440;BME280;5776;51.814;4.510;2022-08-21T06:03:28;101710.56;;;17.01;93.08
11440;BME280;5776;51.814;4.510;2022-08-21T06:05:54;101719.19;;;17.09;93.28
11440;BME280;5776;51.814;4.510;2022-08-21T06:08:21;101712.28;;;17.11;93.31
11440;BME280;5776;51.814;4.510;2022-08-21T06:10:49;101707.59;;;17.12;92.65
11440;BME280;5776;51.814;4.510;2022-08-21T06:13:17;101713.59;;;17.14;93.53
11440;BME280;5776;51.814;4.510;2022-08-21T06:15:43;101723.25;;;17.11;94.01
11440;BME280;5776;51.814;4.510;2022-08-21T06:18:09;101720.69;;;17.15;94.18
11440;BME280;5776;51.814;4.510;2022-08-21T06:20:36;101719.06;;;17.14;93.79
11440;BME280;5776;51.814;4.510;2022-08-21T06:23:02;101713.75;;;17.17;94.30
11440;BME280;5776;51.814;4.510;2022-08-21T06:25:28;101709.78;;;17.23;93.05
11440;BME280;5776;51.814;4.510;2022-08-21T06:28:06;101716.75;;;17.30;92.19
11440;BME280;5776;51.814;4.510;2022-08-21T06:30:34;101721.16;;;17.31;92.34
11440;BME280;5776;51.814;4.510;2022-08-21T06:33:00;101720.31;;;17.30;93.99
11440;BME280;5776;51.814;4.510;2022-08-21T06:35:27;101718.69;;;17.29;93.47
11440;BME280;5776;51.814;4.510;2022-08-21T06:37:55;101718.28;;;17.36;93.24
11440;BME280;5776;51.814;4.510;2022-08-21T06:40:21;101712.31;;;17.42;92.51
11440;BME280;5776;51.814;4.510;2022-08-21T06:42:47;101716.06;;;17.46;93.05
11440;BME280;5776;51.814;4.510;2022-08-21T06:45:13;101718.53;;;17.48;91.05
11440;BME280;5776;51.814;4.510;2022-08-21T06:47:39;101712.69;;;17.49;92.70
11440;BME280;5776;51.814;4.510;2022-08-21T06:50:05;101710.28;;;17.48;92.95
11440;BME280;5776;51.814;4.510;2022-08-21T06:52:34;101713.84;;;17.48;92.44
11440;BME280;5776;51.814;4.510;2022-08-21T06:55:00;101703.53;;;17.54;92.21
11440;BME280;5776;51.814;4.510;2022-08-21T06:57:26;101694.16;;;17.55;93.74
11440;BME280;5776;51.814;4.510;2022-08-21T06:59:52;101700.47;;;17.56;93.36
11440;BME280;5776;51.814;4.510;2022-08-21T07:02:18;101697.38;;;17.57;90.92
11440;BME280;5776;51.814;4.510;2022-08-21T07:04:44;101694.50;;;17.62;91.80
11440;BME280;5776;51.814;4.510;2022-08-21T07:07:09;101700.19;;;17.66;93.03
11440;BME280;5776;51.814;4.510;2022-08-21T07:09:35;101694.22;;;17.64;92.76
11440;BME280;5776;51.814;4.510;2022-08-21T07:12:02;101703.56;;;17.63;90.36
11440;BME280;5776;51.814;4.510;2022-08-21T07:14:29;101705.56;;;17.71;92.23
11440;BME280;5776;51.814;4.510;2022-08-21T07:16:55;101701.53;;;17.77;92.32
11440;BME280;5776;51.814;4.510;2022-08-21T07:19:21;101706.72;;;17.79;92.45
11440;BME280;5776;51.814;4.510;2022-08-21T07:21:47;101716.59;;;17.80;92.67
11440;BME280;5776;51.814;4.510;2022-08-21T07:24:13;101714.88;;;17.84;92.78
11440;BME280;5776;51.814;4.510;2022-08-21T07:26:39;101710.66;;;17.86;92.88
11440;BME280;5776;51.814;4.510;2022-08-21T07:29:05;101707.59;;;17.88;91.86
11440;BME280;5776;51.814;4.510;2022-08-21T07:31:31;101711.63;;;17.90;90.97
11440;BME280;5776;51.814;4.510;2022-08-21T07:33:58;101708.75;;;17.96;90.90
11440;BME280;5776;51.814;4.510;2022-08-21T07:36:24;101716.06;;;18.00;90.49
11440;BME280;5776;51.814;4.510;2022-08-21T07:38:50;101717.34;;;18.03;89.92
11440;BME280;5776;51.814;4.510;2022-08-21T07:41:20;101716.59;;;18.11;88.80
11440;BME280;5776;51.814;4.510;2022-08-21T07:43:46;101717.25;;;18.17;89.63
11440;BME280;5776;51.814;4.510;2022-08-21T07:46:13;101710.63;;;18.18;90.53
11440;BME280;5776;51.814;4.510;2022-08-21T07:48:39;101711.44;;;18.18;90.63
11440;BME280;5776;51.814;4.510;2022-08-21T07:51:08;101708.22;;;18.16;91.02
11440;BME280;5776;51.814;4.510;2022-08-21T07:53:35;101716.81;;;18.23;89.33
11440;BME280;5776;51.814;4.510;2022-08-21T07:56:01;101714.72;;;18.29;89.51
11440;BME280;5776;51.814;4.510;2022-08-21T07:58:27;101709.56;;;18.36;89.62
11440;BME280;5776;51.814;4.510;2022-08-21T08:00:53;101711.81;;;18.43;88.81
11440;BME280;5776;51.814;4.510;2022-08-21T08:03:19;101715.25;;;18.48;90.20
11440;BME280;5776;51.814;4.510;2022-08-21T08:05:45;101712.81;;;18.47;90.22
11440;BME280;5776;51.814;4.510;2022-08-21T08:08:11;101718.00;;;18.48;88.67
11440;BME280;5776;51.814;4.510;2022-08-21T08:10:38;101708.78;;;18.53;89.18
11440;BME280;5776;51.814;4.510;2022-08-21T08:13:04;101709.25;;;18.55;89.19
11440;BME280;5776;51.814;4.510;2022-08-21T08:15:30;101707.81;;;18.57;88.72
11440;BME280;5776;51.814;4.510;2022-08-21T08:17:57;101711.84;;;18.60;88.73
11440;BME280;5776;51.814;4.510;2022-08-21T08:20:24;101712.66;;;18.61;88.45
11440;BME280;5776;51.814;4.510;2022-08-21T08:22:53;101716.72;;;18.63;88.87
11440;BME280;5776;51.814;4.510;2022-08-21T08:25:20;101711.69;;;18.65;88.68
11440;BME280;5776;51.814;4.510;2022-08-21T08:27:47;101707.84;;;18.66;88.51
11440;BME280;5776;51.814;4.510;2022-08-21T08:30:15;101711.53;;;18.70;88.44
11440;BME280;5776;51.814;4.510;2022-08-21T08:32:42;101701.53;;;18.74;88.46
11440;BME280;5776;51.814;4.510;2022-08-21T08:35:09;101698.66;;;18.80;88.40
11440;BME280;5776;51.814;4.510;2022-08-21T08:37:36;101698.47;;;18.85;88.21
11440;BME280;5776;51.814;4.510;2022-08-21T08:40:04;101703.84;;;18.81;88.94
11440;BME280;5776;51.814;4.510;2022-08-21T08:42:33;101702.69;;;18.82;88.11
11440;BME280;5776;51.814;4.510;2022-08-21T08:45:04;101708.19;;;18.82;88.05
11440;BME280;5776;51.814;4.510;2022-08-21T08:47:35;101703.66;;;18.77;87.78
11440;BME280;5776;51.814;4.510;2022-08-21T08:50:07;101700.09;;;18.77;88.05
11440;BME280;5776;51.814;4.510;2022-08-21T08:52:40;101702.06;;;18.76;87.53
11440;BME280;5776;51.814;4.510;2022-08-21T08:55:09;101705.59;;;18.77;87.97
11440;BME280;5776;51.814;4.510;2022-08-21T08:57:38;101701.09;;;18.81;87.51
11440;BME280;5776;51.814;4.510;2022-08-21T09:00:10;101713.38;;;18.92;88.02
11440;BME280;5776;51.814;4.510;2022-08-21T09:02:42;101694.25;;;18.96;87.64
11440;BME280;5776;51.814;4.510;2022-08-21T09:05:23;101697.84;;;18.96;87.33
11440;BME280;5776;51.814;4.510;2022-08-21T09:11:02;101701.38;;;18.88;86.95
11440;BME280;5776;51.814;4.510;2022-08-21T09:16:40;101695.56;;;18.90;86.82
11440;BME280;5776;51.814;4.510;2022-08-21T09:21:58;101698.50;;;19.02;86.98
11440;BME280;5776;51.814;4.510;2022-08-21T09:27:18;101700.59;;;19.05;85.95
11440;BME280;5776;51.814;4.510;2022-08-21T09:29:47;101709.34;;;19.07;85.81
11440;BME280;5776;51.814;4.510;2022-08-21T09:37:20;101701.41;;;19.14;85.33
11440;BME280;5776;51.814;4.510;2022-08-21T09:39:46;101701.88;;;19.16;85.67
11440;BME280;5776;51.814;4.510;2022-08-21T09:42:22;101698.63;;;19.23;85.42
11440;BME280;5776;51.814;4.510;2022-08-21T09:44:49;101698.63;;;19.32;85.14
11440;BME280;5776;51.814;4.510;2022-08-21T09:47:29;101699.75;;;19.31;84.95
11440;BME280;5776;51.814;4.510;2022-08-21T09:50:11;101694.72;;;19.33;84.16
11440;BME280;5776;51.814;4.510;2022-08-21T09:52:50;101685.81;;;19.36;84.04
11440;BME280;5776;51.814;4.510;2022-08-21T09:55:33;101682.41;;;19.39;83.39
11440;BME280;5776;51.814;4.510;2022-08-21T09:58:18;101686.13;;;19.43;83.41
11440;BME280;5776;51.814;4.510;2022-08-21T10:00:57;101691.13;;;19.50;83.12
11440;BME280;5776;51.814;4.510;2022-08-21T10:03:23;101692.25;;;19.57;83.17
11440;BME280;5776;51.814;4.510;2022-08-21T10:06:05;101681.84;;;19.63;82.42
11440;BME280;5776;51.814;4.510;2022-08-21T10:08:35;101691.13;;;19.67;82.10
11440;BME280;5776;51.814;4.510;2022-08-21T10:11:04;101691.75;;;19.73;81.94
11440;BME280;5776;51.814;4.510;2022-08-21T10:18:38;101680.88;;;19.76;79.97
11440;BME280;5776;51.814;4.510;2022-08-21T10:26:16;101682.78;;;19.84;79.64
11440;BME280;5776;51.814;4.510;2022-08-21T10:32:14;101682.25;;;19.91;79.30
11440;BME280;5776;51.814;4.510;2022-08-21T10:35:06;101676.59;;;19.88;79.24
11440;BME280;5776;51.814;4.510;2022-08-21T10:43:52;101675.25;;;20.02;78.54
11440;BME280;5776;51.814;4.510;2022-08-21T10:47:06;101670.72;;;19.98;78.65
11440;BME280;5776;51.814;4.510;2022-08-21T10:49:17;101674.09;;;20.03;78.59
11440;BME280;5776;51.814;4.510;2022-08-21T10:52:02;101663.91;;;20.04;78.93
11440;BME280;5776;51.814;4.510;2022-08-21T11:00:09;101671.44;;;20.16;78.91
11440;BME280;5776;51.814;4.510;2022-08-21T11:02:53;101676.47;;;20.14;78.66
11440;BME280;5776;51.814;4.510;2022-08-21T11:05:34;101686.84;;;20.17;77.85
11440;BME280;5776;51.814;4.510;2022-08-21T11:08:15;101684.75;;;20.14;78.17
11440;BME280;5776;51.814;4.510;2022-08-21T11:10:48;101693.84;;;20.14;78.10
11440;BME280;5776;51.814;4.510;2022-08-21T11:13:24;101686.66;;;20.22;76.87
11440;BME280;5776;51.814;4.510;2022-08-21T11:16:02;101692.31;;;20.25;77.36
11440;BME280;5776;51.814;4.510;2022-08-21T11:18:53;101693.47;;;20.24;77.82
11440;BME280;5776;51.814;4.510;2022-08-21T11:22:13;101700.78;;;20.20;77.57
11440;BME280;5776;51.814;4.510;2022-08-21T11:27:23;101686.38;;;20.15;77.75
11440;BME280;5776;51.814;4.510;2022-08-21T11:29:54;101685.69;;;20.18;76.90
11440;BME280;5776;51.814;4.510;2022-08-21T11:40:12;101683.03;;;20.30;75.59
11440;BME280;5776;51.814;4.510;2022-08-21T11:42:56;101691.78;;;20.32;75.69
11440;BME280;5776;51.814;4.510;2022-08-21T11:45:49;101696.16;;;20.33;75.95
11440;BME280;5776;51.814;4.510;2022-08-21T11:48:33;101697.44;;;20.36;75.41
11440;BME280;5776;51.814;4.510;2022-08-21T11:51:07;101696.44;;;20.40;74.96
11440;BME280;5776;51.814;4.510;2022-08-21T11:53:49;101696.16;;;20.33;74.45
11440;BME280;5776;51.814;4.510;2022-08-21T11:56:23;101697.31;;;20.32;75.26
11440;BME280;5776;51.814;4.510;2022-08-21T11:58:54;101695.97;;;20.38;74.49
11440;BME280;5776;51.814;4.510;2022-08-21T12:01:25;101691.88;;;20.44;75.18
11440;BME280;5776;51.814;4.510;2022-08-21T12:04:03;101688.44;;;20.47;74.42
11440;BME280;5776;51.814;4.510;2022-08-21T12:09:29;101700.41;;;20.60;74.11
11440;BME280;5776;51.814;4.510;2022-08-21T12:14:51;101697.97;;;20.59;74.33
11440;BME280;5776;51.814;4.510;2022-08-21T12:17:35;101695.38;;;20.54;74.30
11440;BME280;5776;51.814;4.510;2022-08-21T12:20:37;101703.25;;;20.43;74.48
11440;BME280;5776;51.814;4.510;2022-08-21T12:28:28;101707.38;;;20.28;75.93
11440;BME280;5776;51.814;4.510;2022-08-21T12:30:56;101707.38;;;20.28;76.78
11440;BME280;5776;51.814;4.510;2022-08-21T12:33:35;101710.94;;;20.28;77.84
11440;BME280;5776;51.814;4.510;2022-08-21T12:36:17;101710.50;;;20.26;77.01
11440;BME280;5776;51.814;4.510;2022-08-21T12:39:03;101718.41;;;20.28;76.90
11440;BME280;5776;51.814;4.510;2022-08-21T12:41:35;101709.94;;;20.33;76.63
11440;BME280;5776;51.814;4.510;2022-08-21T12:44:16;101715.47;;;20.33;76.74
11440;BME280;5776;51.814;4.510;2022-08-21T12:46:48;101709.16;;;20.33;76.67
11440;BME280;5776;51.814;4.510;2022-08-21T12:49:27;101711.59;;;20.34;76.58
11440;BME280;5776;51.814;4.510;2022-08-21T12:52:16;101716.28;;;20.34;77.38
11440;BME280;5776;51.814;4.510;2022-08-21T12:54:46;101716.91;;;20.39;76.70
11440;BME280;5776;51.814;4.510;2022-08-21T12:57:25;101708.88;;;20.46;76.76
11440;BME280;5776;51.814;4.510;2022-08-21T12:59:59;101715.38;;;20.50;75.85
11440;BME280;5776;51.814;4.510;2022-08-21T13:02:31;101711.66;;;20.46;74.62
11440;BME280;5776;51.814;4.510;2022-08-21T13:05:02;101711.31;;;20.48;74.19
11440;BME280;5776;51.814;4.510;2022-08-21T13:07:32;101709.03;;;20.50;75.58
11440;BME280;5776;51.814;4.510;2022-08-21T13:10:07;101711.31;;;20.57;75.20
11440;BME280;5776;51.814;4.510;2022-08-21T13:12:41;101712.03;;;20.66;75.70
11440;BME280;5776;51.814;4.510;2022-08-21T13:15:08;101713.69;;;20.67;74.07
11440;BME280;5776;51.814;4.510;2022-08-21T13:17:36;101719.53;;;20.65;73.57
11440;BME280;5776;51.814;4.510;2022-08-21T13:20:22;101716.63;;;20.62;73.64
11440;BME280;5776;51.814;4.510;2022-08-21T13:22:49;101717.75;;;20.61;73.82
11440;BME280;5776;51.814;4.510;2022-08-21T13:25:17;101720.88;;;20.59;74.39
11440;BME280;5776;51.814;4.510;2022-08-21T13:27:55;101718.91;;;20.60;73.06
11440;BME280;5776;51.814;4.510;2022-08-21T13:30:22;101713.72;;;20.58;74.39
11440;BME280;5776;51.814;4.510;2022-08-21T13:32:51;101711.75;;;20.59;73.59
11440;BME280;5776;51.814;4.510;2022-08-21T13:35:21;101717.28;;;20.59;72.81
11440;BME280;5776;51.814;4.510;2022-08-21T13:37:49;101716.16;;;20.60;72.33
11440;BME280;5776;51.814;4.510;2022-08-21T13:40:26;101720.53;;;20.61;72.40
11440;BME280;5776;51.814;4.510;2022-08-21T13:42:53;101726.03;;;20.61;73.28
11440;BME280;5776;51.814;4.510;2022-08-21T13:45:32;101723.97;;;20.58;74.12
11440;BME280;5776;51.814;4.510;2022-08-21T13:48:00;101721.19;;;20.58;73.42
11440;BME280;5776;51.814;4.510;2022-08-21T13:50:27;101724.75;;;20.58;74.27
11440;BME280;5776;51.814;4.510;2022-08-21T13:53:05;101722.16;;;20.62;73.90
11440;BME280;5776;51.814;4.510;2022-08-21T13:55:42;101724.91;;;20.62;74.15
11440;BME280;5776;51.814;4.510;2022-08-21T13:58:10;101724.44;;;20.60;73.49
11440;BME280;5776;51.814;4.510;2022-08-21T14:00:53;101726.84;;;20.61;73.21
11440;BME280;5776;51.814;4.510;2022-08-21T14:03:34;101725.38;;;20.64;72.97
11440;BME280;5776;51.814;4.510;2022-08-21T14:06:00;101730.25;;;20.67;73.05
11440;BME280;5776;51.814;4.510;2022-08-21T14:08:36;101724.72;;;20.67;73.28
11440;BME280;5776;51.814;4.510;2022-08-21T14:11:05;101725.38;;;20.64;73.54
11440;BME280;5776;51.814;4.510;2022-08-21T14:13:44;101723.88;;;20.66;74.01
11440;BME280;5776;51.814;4.510;2022-08-21T14:16:46;101728.59;;;20.66;74.28
11440;BME280;5776;51.814;4.510;2022-08-21T14:19:22;101723.56;;;20.68;73.36